Time;durP1;ratioP1;P1;durP2;ratioP2;P2;SDS_P1;SDS_P2;PMS_P1;PMS_P2;Temp;Humidity;BMP_temperature;BMP_pressure;BME280_temperature;BME280_humidity;BME280_pressure;Samples;Min_cycle;Max_cycle;Signal;HPM_P1;HPM_P2
2023/01/28 00:01:47;;;;;;;6.57;5.73;;;3.40;99.90;;;;;;5098686;28;20651;-80
2023/01/28 00:04:14;;;;;;;8.73;5.97;;;3.40;99.90;;;;;;5099152;28;20178;-80
2023/01/28 00:06:39;;;;;;;12.17;5.93;;;3.40;99.90;;;;;;5099392;28;20183;-80
2023/01/28 00:09:05;;;;;;;7.07;5.80;;;3.30;99.90;;;;;;5079706;28;20221;-80
2023/01/28 00:11:30;;;;;;;9.33;6.30;;;3.30;99.90;;;;;;5098937;28;20566;-80
2023/01/28 00:13:56;;;;;;;7.83;7.03;;;3.30;99.90;;;;;;5080531;28;20676;-79
2023/01/28 00:16:22;;;;;;;8.17;6.37;;;3.30;99.90;;;;;;5098528;28;20198;-80
2023/01/28 00:18:47;;;;;;;7.73;6.73;;;3.20;99.90;;;;;;5099061;28;20257;-79
2023/01/28 00:21:14;;;;;;;7.87;6.47;;;3.30;99.90;;;;;;5098291;28;20170;-80
2023/01/28 00:23:41;;;;;;;8.47;6.93;;;3.20;99.90;;;;;;5099256;28;20174;-80
2023/01/28 00:26:13;;;;;;;10.73;7.50;;;3.20;99.90;;;;;;5098507;28;20174;-79
2023/01/28 00:28:39;;;;;;;8.60;6.70;;;3.20;99.90;;;;;;5080767;28;20239;-79
2023/01/28 00:31:22;;;;;;;7.67;6.40;;;3.20;99.90;;;;;;5105761;28;20600;-80
2023/01/28 00:33:49;;;;;;;12.23;7.43;;;3.20;99.90;;;;;;5106154;28;20178;-80
2023/01/28 00:36:15;;;;;;;11.10;8.13;;;3.20;99.90;;;;;;5103639;28;20201;-80
2023/01/28 00:38:42;;;;;;;9.83;7.27;;;3.10;99.90;;;;;;5099219;28;20174;-80
2023/01/28 00:41:15;;;;;;;10.33;7.47;;;3.20;99.90;;;;;;5102760;28;20224;-80
2023/01/28 00:43:42;;;;;;;8.50;7.17;;;3.10;99.90;;;;;;5104856;28;20238;-80
2023/01/28 00:46:09;;;;;;;10.43;7.83;;;3.10;99.90;;;;;;5079853;28;20553;-81
2023/01/28 00:48:38;;;;;;;9.90;7.57;;;3.10;99.90;;;;;;5097919;28;20202;-80
2023/01/28 00:51:04;;;;;;;9.53;7.83;;;3.10;99.90;;;;;;5097871;28;20214;-80
2023/01/28 00:53:30;;;;;;;11.07;7.77;;;3.10;99.90;;;;;;5096711;28;20588;-81
2023/01/28 00:55:55;;;;;;;10.20;7.63;;;3.10;99.90;;;;;;5079578;28;20266;-80
2023/01/28 00:58:24;;;;;;;8.40;7.27;;;3.10;99.90;;;;;;5097046;28;20202;-80
2023/01/28 01:00:50;;;;;;;11.97;7.67;;;3.00;99.90;;;;;;5097777;28;20324;-80
2023/01/28 01:03:17;;;;;;;8.57;7.43;;;3.00;99.90;;;;;;5096570;28;20190;-80
2023/01/28 01:05:42;;;;;;;12.20;7.60;;;3.00;99.90;;;;;;5095606;28;20530;-80
2023/01/28 01:08:08;;;;;;;9.47;7.60;;;3.10;99.90;;;;;;5097647;28;20220;-80
2023/01/28 01:10:33;;;;;;;8.90;6.77;;;3.00;99.90;;;;;;5097620;28;20194;-80
2023/01/28 01:12:59;;;;;;;7.80;6.40;;;3.00;99.90;;;;;;5097685;28;20197;-80
2023/01/28 01:15:25;;;;;;;9.77;7.07;;;3.00;99.90;;;;;;5097674;28;20211;-80
2023/01/28 01:17:52;;;;;;;8.43;6.63;;;3.00;99.90;;;;;;5079348;28;20225;-80
2023/01/28 01:20:24;;;;;;;7.03;6.13;;;3.00;99.90;;;;;;5097630;28;20737;-80
2023/01/28 01:22:50;;;;;;;8.63;6.23;;;3.00;99.90;;;;;;5096162;28;20206;-80
2023/01/28 01:25:17;;;;;;;8.43;6.53;;;3.00;99.90;;;;;;5078595;28;20182;-80
2023/01/28 01:27:44;;;;;;;12.17;6.40;;;3.00;99.90;;;;;;5096936;28;20538;-80
2023/01/28 01:30:11;;;;;;;9.87;6.97;;;2.90;99.90;;;;;;5096174;28;20198;-80
2023/01/28 01:32:37;;;;;;;7.77;6.20;;;2.90;99.90;;;;;;5097216;28;20170;-81
2023/01/28 01:35:06;;;;;;;8.00;6.73;;;2.90;99.90;;;;;;5097041;28;20618;-79
2023/01/28 01:37:33;;;;;;;11.97;6.80;;;2.90;99.90;;;;;;5096966;28;20190;-80
2023/01/28 01:40:00;;;;;;;10.60;7.23;;;2.90;99.90;;;;;;5096838;28;20190;-80
2023/01/28 01:42:27;;;;;;;9.80;6.80;;;2.90;99.90;;;;;;5097032;28;20165;-80
2023/01/28 01:45:01;;;;;;;11.00;6.40;;;2.90;99.90;;;;;;5096786;28;20672;-80
2023/01/28 01:47:36;;;;;;;7.70;6.63;;;2.90;99.90;;;;;;5097178;28;20169;-80
2023/01/28 01:50:13;;;;;;;7.40;6.00;;;2.90;99.90;;;;;;5096638;28;20216;-79
2023/01/28 01:52:41;;;;;;;8.50;6.70;;;2.90;99.90;;;;;;5096996;28;20180;-80
2023/01/28 01:55:13;;;;;;;8.43;6.40;;;2.80;99.90;;;;;;5096824;28;20603;-80
2023/01/28 01:57:39;;;;;;;7.27;6.53;;;2.80;99.90;;;;;;5095304;28;20215;-80
2023/01/28 02:00:06;;;;;;;8.77;6.60;;;2.90;99.90;;;;;;5096584;28;20624;-79
2023/01/28 02:02:35;;;;;;;10.03;7.43;;;2.80;99.90;;;;;;5096965;28;20535;-79
2023/01/28 02:05:02;;;;;;;9.77;7.80;;;2.80;99.90;;;;;;5096264;28;20166;-80
2023/01/28 02:07:27;;;;;;;10.37;8.00;;;2.80;99.90;;;;;;5078868;28;20738;-79
2023/01/28 02:09:53;;;;;;;9.57;8.13;;;2.80;99.90;;;;;;5096054;28;20229;-80
2023/01/28 02:12:35;;;;;;;9.47;7.93;;;2.80;99.90;;;;;;5096898;28;20639;-80
2023/01/28 02:15:08;;;;;;;9.30;7.80;;;2.80;99.90;;;;;;5096843;28;20634;-80
2023/01/28 02:17:35;;;;;;;8.70;7.17;;;2.80;99.90;;;;;;5096397;28;20190;-80
2023/01/28 02:20:10;;;;;;;8.43;7.47;;;2.80;99.90;;;;;;5100404;28;20671;-80
2023/01/28 02:22:56;;;;;;;7.83;5.67;;;2.80;99.90;;;;;;5101021;28;20178;-80
2023/01/28 02:25:49;;;;;;;9.50;6.00;;;2.70;99.90;;;;;;5100304;28;20596;-80
2023/01/28 02:28:30;;;;;;;5.93;5.30;;;2.80;99.90;;;;;;5100791;28;20169;-80
2023/01/28 02:31:05;;;;;;;6.40;5.47;;;2.80;99.90;;;;;;5100717;28;20193;-80
2023/01/28 02:33:34;;;;;;;7.90;4.70;;;2.80;99.90;;;;;;5100434;28;20159;-80
2023/01/28 02:36:09;;;;;;;7.27;5.13;;;2.70;99.90;;;;;;5100389;28;20174;-79
2023/01/28 02:38:42;;;;;;;6.93;4.87;;;2.70;99.90;;;;;;5100727;28;20173;-80
2023/01/28 02:41:17;;;;;;;5.67;5.00;;;2.70;99.90;;;;;;5100772;28;20178;-80
2023/01/28 02:43:45;;;;;;;5.20;4.60;;;2.60;99.90;;;;;;5099963;28;20245;-80
2023/01/28 02:49:37;;;;;;;7.67;5.33;;;2.60;99.90;;;;;;5062570;28;20199;-80
2023/01/28 02:55:37;;;;;;;9.10;6.57;;;2.50;99.90;;;;;;5100411;28;20542;-80
2023/01/28 02:58:33;;;;;;;10.13;7.57;;;2.60;99.90;;;;;;5099796;28;20219;-80
2023/01/28 03:01:31;;;;;;;9.27;7.73;;;2.50;99.90;;;;;;5092972;28;20197;-79
2023/01/28 03:04:21;;;;;;;9.67;7.27;;;2.50;99.90;;;;;;5093878;28;20178;-80
2023/01/28 03:06:52;;;;;;;8.70;7.23;;;2.50;99.90;;;;;;5100198;28;20174;-80
2023/01/28 03:09:22;;;;;;;9.10;6.97;;;2.50;99.90;;;;;;5099754;28;20292;-80
2023/01/28 03:38:22;;;;;;;12.20;7.13;;;2.40;99.90;;;;;;5099781;28;20270;-81
2023/01/28 03:40:55;;;;;;;11.10;7.00;;;2.40;99.90;;;;;;5099462;28;20206;-80
2023/01/28 03:43:21;;;;;;;9.17;7.23;;;2.40;99.90;;;;;;5080722;28;20174;-80
2023/01/28 03:45:50;;;;;;;9.47;7.20;;;2.40;99.90;;;;;;5099942;28;20186;-80
2023/01/28 03:48:19;;;;;;;8.90;6.73;;;2.40;99.90;;;;;;5099305;28;20194;-80
2023/01/28 03:50:45;;;;;;;8.87;6.53;;;2.40;99.90;;;;;;5098510;28;20213;-79
2023/01/28 03:53:14;;;;;;;7.70;6.33;;;2.40;99.90;;;;;;5099137;28;20223;-79
2023/01/28 03:55:41;;;;;;;8.47;7.00;;;2.40;99.90;;;;;;5098805;28;20172;-80
2023/01/28 03:58:07;;;;;;;8.13;6.47;;;2.30;99.90;;;;;;5098937;28;20739;-79
2023/01/28 04:00:33;;;;;;;10.23;6.47;;;2.30;99.90;;;;;;5098851;28;20194;-80
2023/01/28 04:02:59;;;;;;;13.17;7.00;;;2.30;99.90;;;;;;5097279;28;20166;-80
2023/01/28 04:05:25;;;;;;;9.00;6.37;;;2.30;99.90;;;;;;5099073;28;20169;-80
2023/01/28 04:07:55;;;;;;;9.53;7.07;;;2.40;99.90;;;;;;5098695;28;20186;-80
2023/01/28 04:10:20;;;;;;;8.17;6.43;;;2.40;99.90;;;;;;5098870;28;20201;-80
2023/01/28 04:12:48;;;;;;;8.87;6.40;;;2.30;99.90;;;;;;5098491;28;20181;-80
2023/01/28 04:15:15;;;;;;;7.87;6.63;;;2.30;99.90;;;;;;5098475;28;20177;-80
2023/01/28 04:17:44;;;;;;;9.47;7.43;;;2.30;99.90;;;;;;5079938;28;20577;-80
2023/01/28 04:20:11;;;;;;;9.03;7.00;;;2.30;99.90;;;;;;5080014;28;20194;-79
2023/01/28 04:22:37;;;;;;;10.13;7.37;;;2.30;99.90;;;;;;5080272;28;20658;-80
2023/01/28 04:25:03;;;;;;;10.77;7.20;;;2.30;99.90;;;;;;5098154;28;20178;-80
2023/01/28 04:27:28;;;;;;;8.73;7.00;;;2.30;99.90;;;;;;5097858;28;20651;-80
2023/01/28 04:29:54;;;;;;;8.67;6.80;;;2.30;99.90;;;;;;5097975;28;20211;-83
2023/01/28 04:32:19;;;;;;;8.20;6.90;;;2.30;99.90;;;;;;5079602;28;20242;-80
2023/01/28 04:34:45;;;;;;;8.17;6.40;;;2.20;99.90;;;;;;5098047;28;20256;-80
2023/01/28 04:37:10;;;;;;;11.80;6.57;;;2.30;99.90;;;;;;5097766;28;20597;-80
2023/01/28 04:39:36;;;;;;;7.13;6.43;;;2.30;99.90;;;;;;5098051;28;20205;-80
2023/01/28 04:42:01;;;;;;;7.50;6.40;;;2.20;99.90;;;;;;5096525;28;20247;-80
2023/01/28 04:44:27;;;;;;;7.10;6.03;;;2.30;99.90;;;;;;5097710;28;20179;-80
2023/01/28 04:46:52;;;;;;;7.70;6.90;;;2.20;99.90;;;;;;5080111;28;20200;-80
2023/01/28 04:49:18;;;;;;;9.17;7.00;;;2.20;99.90;;;;;;5097671;28;20240;-80
2023/01/28 04:51:43;;;;;;;9.13;6.70;;;2.20;99.90;;;;;;5098098;28;20178;-80
2023/01/28 04:54:09;;;;;;;9.20;6.03;;;2.20;99.90;;;;;;5079074;28;20174;-80
2023/01/28 04:56:34;;;;;;;8.90;7.07;;;2.20;99.90;;;;;;5097323;28;20202;-79
2023/01/28 04:59:01;;;;;;;9.93;6.90;;;2.20;99.90;;;;;;5098132;28;20202;-79
2023/01/28 05:01:27;;;;;;;9.70;6.73;;;2.20;99.90;;;;;;5097489;28;20246;-80
2023/01/28 05:03:53;;;;;;;7.70;5.87;;;2.20;99.90;;;;;;5097850;28;20205;-80
2023/01/28 05:06:19;;;;;;;6.97;6.27;;;2.20;99.90;;;;;;5097376;28;20673;-80
2023/01/28 05:08:45;;;;;;;7.43;6.17;;;2.20;99.90;;;;;;5095827;28;20190;-79
2023/01/28 05:11:11;;;;;;;8.00;7.03;;;2.20;99.90;;;;;;5097652;28;20212;-79
2023/01/28 05:13:37;;;;;;;11.07;7.50;;;2.20;99.90;;;;;;5097009;28;20170;-80
2023/01/28 05:16:03;;;;;;;8.43;7.47;;;2.20;99.90;;;;;;5097429;28;20166;-80
2023/01/28 05:18:28;;;;;;;9.57;7.60;;;2.20;99.90;;;;;;5097181;28;20277;-80
2023/01/28 05:20:54;;;;;;;8.13;6.87;;;2.10;99.90;;;;;;5097518;28;20190;-80
2023/01/28 05:23:19;;;;;;;14.90;7.80;;;2.10;99.90;;;;;;5097397;28;20183;-80
2023/01/28 05:25:45;;;;;;;11.23;7.10;;;2.10;99.90;;;;;;5097419;28;20173;-80
2023/01/28 05:28:10;;;;;;;8.07;7.00;;;2.10;99.90;;;;;;5096902;28;20180;-79
2023/01/28 05:30:37;;;;;;;7.80;7.00;;;2.10;99.90;;;;;;5097220;28;20690;-80
2023/01/28 05:33:03;;;;;;;7.60;6.80;;;2.00;99.90;;;;;;5097416;28;20174;-80
2023/01/28 05:35:28;;;;;;;7.40;6.60;;;2.10;99.90;;;;;;5096837;28;20571;-79
2023/01/28 05:37:54;;;;;;;8.87;6.97;;;2.00;99.90;;;;;;5096753;28;20266;-80
2023/01/28 05:40:19;;;;;;;10.13;7.23;;;2.00;99.90;;;;;;5096788;28;20194;-80
2023/01/28 05:42:45;;;;;;;9.13;7.60;;;2.00;99.90;;;;;;5095540;28;20178;-81
2023/01/28 05:45:11;;;;;;;7.87;6.60;;;2.00;99.90;;;;;;5078858;28;20257;-80
2023/01/28 05:47:37;;;;;;;8.17;6.90;;;2.00;1.00;;;;;;5097091;28;20166;-80
2023/01/28 05:50:03;;;;;;;9.37;7.67;;;2.00;1.00;;;;;;5078458;28;20286;-80
2023/01/28 05:52:28;;;;;;;8.77;6.80;;;2.00;1.00;;;;;;5077861;28;20174;-80
2023/01/28 05:54:54;;;;;;;8.77;7.47;;;1.90;1.00;;;;;;5095494;28;20200;-81
2023/01/28 05:57:19;;;;;;;11.00;7.87;;;1.90;1.00;;;;;;5096479;28;20194;-80
2023/01/28 05:59:45;;;;;;;8.83;7.77;;;1.90;1.00;;;;;;5095475;28;20284;-80
2023/01/28 06:02:10;;;;;;;12.77;8.27;;;1.90;99.90;;;;;;5096708;28;20650;-80
2023/01/28 06:04:36;;;;;;;8.50;7.50;;;2.00;1.00;;;;;;5096296;28;20166;-80
2023/01/28 06:07:01;;;;;;;13.00;8.53;;;1.90;1.00;;;;;;5096290;28;20250;-79
2023/01/28 06:09:27;;;;;;;10.73;7.80;;;1.90;99.90;;;;;;5096725;28;20189;-80
2023/01/28 06:11:52;;;;;;;9.27;7.50;;;1.90;99.90;;;;;;5096561;28;20638;-80
2023/01/28 06:14:18;;;;;;;9.97;7.70;;;1.90;1.00;;;;;;5078362;28;20182;-80
2023/01/28 06:16:44;;;;;;;13.43;8.40;;;1.90;96.00;;;;;;5096372;28;20198;-80
2023/01/28 06:19:09;;;;;;;11.03;8.53;;;1.80;99.90;;;;;;5095503;28;20222;-80
2023/01/28 06:21:35;;;;;;;9.00;7.97;;;1.90;19.80;;;;;;5097068;28;20745;-80
2023/01/28 06:24:01;;;;;;;14.13;8.60;;;1.90;92.20;;;;;;5096307;28;20600;-80
2023/01/28 06:26:26;;;;;;;11.23;8.10;;;1.90;99.90;;;;;;5096456;28;20670;-80
2023/01/28 06:28:52;;;;;;;10.13;8.20;;;1.90;99.90;;;;;;5096852;28;20177;-80
2023/01/28 06:31:18;;;;;;;11.67;8.50;;;1.90;99.90;;;;;;5078669;28;20170;-80
2023/01/28 06:33:43;;;;;;;14.13;9.60;;;1.90;99.90;;;;;;5096856;28;20627;-80
2023/01/28 06:36:09;;;;;;;13.93;9.40;;;1.90;1.00;;;;;;5078250;28;20223;-80
2023/01/28 06:38:34;;;;;;;11.47;8.30;;;1.80;1.00;;;;;;5096573;28;20670;-80
2023/01/28 06:41:00;;;;;;;10.97;8.60;;;1.90;1.00;;;;;;5096177;28;20200;-80
2023/01/28 06:43:29;;;;;;;11.77;8.63;;;1.80;1.00;;;;;;5096873;28;20220;-80
2023/01/28 06:45:56;;;;;;;10.20;8.50;;;1.80;98.30;;;;;;5096185;28;20643;-80
2023/01/28 06:48:22;;;;;;;10.40;8.40;;;1.80;81.90;;;;;;5096257;28;20171;-79
2023/01/28 06:50:48;;;;;;;10.93;8.60;;;1.80;58.10;;;;;;5096219;28;20560;-79
2023/01/28 06:53:14;;;;;;;9.60;8.03;;;1.80;99.90;;;;;;5077688;28;20612;-80
2023/01/28 06:55:40;;;;;;;9.97;8.20;;;1.80;99.90;;;;;;5096143;28;20189;-79
2023/01/28 06:58:06;;;;;;;9.90;7.77;;;1.80;99.90;;;;;;5077472;28;20198;-79
2023/01/28 07:00:31;;;;;;;13.07;8.70;;;1.80;99.90;;;;;;5095737;28;20179;-80
2023/01/28 07:02:57;;;;;;;9.80;8.70;;;1.80;99.90;;;;;;5096337;28;20174;-79
2023/01/28 07:05:23;;;;;;;8.73;7.70;;;1.70;99.90;;;;;;5097061;28;20171;-79
2023/01/28 07:07:48;;;;;;;7.83;7.00;;;1.80;99.90;;;;;;5098243;28;20198;-79
2023/01/28 07:10:14;;;;;;;7.97;7.13;;;1.80;1.00;;;;;;5098264;28;20204;-79
2023/01/28 07:12:40;;;;;;;9.57;8.17;;;1.70;1.00;;;;;;5099271;28;20213;-79
2023/01/28 07:15:06;;;;;;;8.83;7.17;;;1.70;1.00;;;;;;5099325;28;20166;-79
2023/01/28 07:17:32;;;;;;;9.13;8.23;;;1.70;1.00;;;;;;5098813;28;20186;-79
2023/01/28 07:19:57;;;;;;;9.40;7.80;;;1.70;1.00;;;;;;5099148;28;20213;-78
2023/01/28 07:22:23;;;;;;;12.57;9.07;;;1.70;99.90;;;;;;5098131;28;20253;-82
2023/01/28 07:24:48;;;;;;;9.73;7.67;;;1.70;1.00;;;;;;5098844;28;20198;-79
2023/01/28 07:27:14;;;;;;;9.80;7.57;;;1.70;1.00;;;;;;5099072;28;20206;-79
2023/01/28 07:29:39;;;;;;;9.23;7.63;;;1.70;1.00;;;;;;5099158;28;20684;-80
2023/01/28 07:32:06;;;;;;;9.90;8.00;;;1.70;1.00;;;;;;5097453;28;20271;-80
2023/01/28 07:34:32;;;;;;;8.70;7.77;;;1.70;1.00;;;;;;5097444;28;20178;-79
2023/01/28 07:36:57;;;;;;;9.77;7.50;;;1.60;1.00;;;;;;5098793;28;20562;-79
2023/01/28 07:39:23;;;;;;;9.47;7.67;;;1.50;1.00;;;;;;5099269;28;20186;-79
2023/01/28 07:41:48;;;;;;;10.10;7.60;;;1.60;1.00;;;;;;5099566;28;20635;-79
2023/01/28 07:44:14;;;;;;;8.53;6.97;;;1.60;1.00;;;;;;5098743;28;20179;-79
2023/01/28 07:46:39;;;;;;;9.13;7.10;;;1.60;1.00;;;;;;5098483;28;20174;-79
2023/01/28 07:49:05;;;;;;;12.27;7.33;;;1.60;1.00;;;;;;5098803;28;20243;-79
2023/01/28 07:51:30;;;;;;;7.50;6.77;;;1.60;1.00;;;;;;5098903;28;20177;-79
2023/01/28 07:53:56;;;;;;;10.63;7.23;;;1.60;1.00;;;;;;5080564;28;20188;-79
2023/01/28 07:56:22;;;;;;;10.20;8.27;;;1.60;1.00;;;;;;5098611;28;20174;-79
2023/01/28 07:58:50;;;;;;;12.00;9.37;;;1.60;1.00;;;;;;5096651;28;20643;-79
2023/01/28 08:01:17;;;;;;;14.93;9.27;;;1.60;1.00;;;;;;5098034;28;20254;-79
2023/01/28 08:03:42;;;;;;;12.03;8.70;;;1.60;1.00;;;;;;5097104;28;20200;-79
2023/01/28 08:06:08;;;;;;;9.70;7.67;;;1.60;1.00;;;;;;5098282;28;20166;-79
2023/01/28 08:08:34;;;;;;;11.63;9.43;;;1.60;1.00;;;;;;5098820;28;20238;-79
2023/01/28 08:11:07;;;;;;;9.83;8.53;;;1.60;1.00;;;;;;5097995;28;20194;-79
2023/01/28 08:13:33;;;;;;;13.57;9.70;;;1.70;1.00;;;;;;5098749;28;20150;-79
2023/01/28 08:15:58;;;;;;;11.17;9.70;;;1.70;1.00;;;;;;5097401;28;20231;-77
2023/01/28 08:18:24;;;;;;;12.60;10.10;;;1.70;99.90;;;;;;5079953;28;20198;-78
2023/01/28 08:20:54;;;;;;;12.13;8.80;;;1.70;99.90;;;;;;5096783;28;20674;-79
2023/01/28 08:23:20;;;;;;;10.30;8.90;;;1.70;99.90;;;;;;5097494;28;20225;-78
2023/01/28 08:25:46;;;;;;;10.07;9.03;;;1.70;1.00;;;;;;5097142;28;20166;-79
2023/01/28 08:28:14;;;;;;;12.17;9.30;;;1.80;1.00;;;;;;5097506;28;20180;-79
2023/01/28 08:30:40;;;;;;;12.40;9.37;;;1.80;1.00;;;;;;5097432;28;20662;-78
2023/01/28 08:33:08;;;;;;;11.20;8.83;;;1.80;1.00;;;;;;5078729;28;20188;-79
2023/01/28 08:35:34;;;;;;;12.50;9.60;;;1.80;99.90;;;;;;5097190;28;20200;-79
2023/01/28 08:38:01;;;;;;;11.87;8.50;;;1.80;99.90;;;;;;5097100;28;20206;-79
2023/01/28 08:40:27;;;;;;;12.20;9.60;;;1.80;99.90;;;;;;5096321;28;20220;-78
2023/01/28 08:42:53;;;;;;;11.20;9.67;;;1.90;99.90;;;;;;5096813;28;20170;-79
2023/01/28 08:45:21;;;;;;;10.43;9.37;;;1.90;60.40;;;;;;5097088;28;20573;-79
2023/01/28 08:47:52;;;;;;;12.77;10.03;;;1.90;26.20;;;;;;5096961;28;20544;-79
2023/01/28 08:50:19;;;;;;;12.33;10.07;;;1.90;73.80;;;;;;5096601;28;20189;-78
2023/01/28 08:52:46;;;;;;;12.30;10.27;;;1.90;15.00;;;;;;5095278;28;20181;-79
2023/01/28 08:55:12;;;;;;;11.57;9.93;;;1.90;1.00;;;;;;5096877;28;20171;-78
2023/01/28 08:57:38;;;;;;;15.07;11.10;;;2.00;1.00;;;;;;5096333;28;20209;-78
2023/01/28 09:00:05;;;;;;;12.00;10.37;;;2.00;28.50;;;;;;5096138;28;20561;-78
2023/01/28 09:02:31;;;;;;;15.37;10.43;;;2.00;1.00;;;;;;5096826;28;20170;-78
2023/01/28 09:04:56;;;;;;;11.53;9.87;;;2.00;1.00;;;;;;5096296;28;20518;-79
2023/01/28 09:07:22;;;;;;;10.40;9.30;;;2.00;1.00;;;;;;5096232;28;20190;-78
2023/01/28 09:09:48;;;;;;;11.43;9.80;;;2.00;1.00;;;;;;5100064;28;20210;-81
2023/01/28 09:12:13;;;;;;;12.87;9.23;;;2.00;2.30;;;;;;5085140;28;20176;-79
2023/01/28 09:14:39;;;;;;;13.13;10.50;;;2.00;92.90;;;;;;5103447;28;20174;-79
2023/01/28 09:17:04;;;;;;;12.57;10.47;;;2.00;1.00;;;;;;5102782;28;20205;-79
2023/01/28 09:19:30;;;;;;;13.10;10.30;;;2.10;1.00;;;;;;5103392;28;20197;-79
2023/01/28 09:21:56;;;;;;;16.33;12.67;;;2.10;1.00;;;;;;5103902;28;20170;-79
2023/01/28 09:24:21;;;;;;;16.77;12.43;;;2.10;99.90;;;;;;5082796;28;20200;-78
2023/01/28 09:26:50;;;;;;;16.83;12.47;;;2.00;99.90;;;;;;5099293;28;20170;-79
2023/01/28 09:29:16;;;;;;;14.40;11.80;;;2.00;1.00;;;;;;5096893;28;20205;-78
2023/01/28 09:31:42;;;;;;;16.93;11.70;;;2.00;99.90;;;;;;5078984;28;20178;-78
2023/01/28 09:34:10;;;;;;;16.20;11.87;;;2.10;1.00;;;;;;5097904;28;20251;-78
2023/01/28 09:36:36;;;;;;;16.77;12.23;;;2.10;1.00;;;;;;5098209;28;20204;-79
2023/01/28 09:39:02;;;;;;;16.70;12.57;;;2.00;99.90;;;;;;5098039;28;20269;-79
2023/01/28 09:41:36;;;;;;;16.27;11.83;;;2.00;1.00;;;;;;5097175;28;20174;-78
2023/01/28 09:44:20;;;;;;;17.43;11.57;;;2.00;1.00;;;;;;5095407;28;20257;-78
2023/01/28 09:46:45;;;;;;;19.83;12.53;;;2.00;1.00;;;;;;5098887;28;20540;-79
2023/01/28 09:49:26;;;;;;;14.30;11.80;;;2.00;1.00;;;;;;5100479;28;20197;-79
2023/01/28 09:51:54;;;;;;;17.93;13.13;;;2.10;99.90;;;;;;5102039;28;20184;-79
2023/01/28 09:54:31;;;;;;;17.03;12.37;;;2.10;99.90;;;;;;5101553;28;20698;-79
2023/01/28 09:57:04;;;;;;;15.57;11.57;;;2.10;99.90;;;;;;5102253;28;20654;-80
2023/01/28 09:59:34;;;;;;;15.87;12.23;;;2.10;99.90;;;;;;5103262;28;20182;-79
2023/01/28 10:02:33;;;;;;;16.17;12.37;;;2.10;1.00;;;;;;5086231;28;20174;-78
2023/01/28 10:05:25;;;;;;;16.40;12.37;;;2.10;16.20;;;;;;5103083;28;20177;-77
2023/01/28 10:08:25;;;;;;;14.80;11.93;;;2.10;1.00;;;;;;5100032;28;20318;-78
2023/01/28 10:10:55;;;;;;;18.07;12.07;;;2.20;99.90;;;;;;5102962;28;20244;-78
2023/01/28 10:13:29;;;;;;;17.23;13.00;;;2.20;99.90;;;;;;5094191;28;20197;-77
2023/01/28 10:16:25;;;;;;;15.73;12.63;;;2.20;99.90;;;;;;5093357;28;20157;-77
2023/01/28 10:19:16;;;;;;;17.47;11.27;;;2.20;1.00;;;;;;5093322;28;20292;-78
2023/01/28 10:21:48;;;;;;;15.53;11.60;;;2.20;1.00;;;;;;5073166;28;20175;-78
2023/01/28 10:24:22;;;;;;;14.93;11.40;;;2.30;1.00;;;;;;5095547;28;20163;-78
2023/01/28 10:26:48;;;;;;;15.33;11.47;;;2.20;99.90;;;;;;5095799;28;20157;-78
2023/01/28 10:29:18;;;;;;;14.20;11.57;;;2.30;1.00;;;;;;5095272;28;20201;-78
2023/01/28 10:31:56;;;;;;;15.07;12.20;;;2.30;1.00;;;;;;5095246;28;20179;-78
2023/01/28 10:34:22;;;;;;;16.10;12.50;;;2.30;1.00;;;;;;5095334;28;20611;-78
2023/01/28 10:36:48;;;;;;;15.07;11.57;;;2.30;1.00;;;;;;5077037;28;20288;-78
2023/01/28 10:39:17;;;;;;;16.53;11.70;;;2.30;1.00;;;;;;5075488;28;20190;-77
2023/01/28 10:41:42;;;;;;;17.17;12.13;;;2.30;1.00;;;;;;5096650;28;20172;-77
2023/01/28 10:44:34;;;;;;;13.60;11.77;;;2.40;25.40;;;;;;5096601;28;20163;-77
2023/01/28 10:47:05;;;;;;;15.60;12.07;;;2.30;99.90;;;;;;5088131;28;20269;-77
2023/01/28 10:49:38;;;;;;;15.83;12.03;;;2.30;99.90;;;;;;5096624;28;20726;-77
2023/01/28 10:52:14;;;;;;;15.10;11.47;;;2.20;99.90;;;;;;5097074;28;20221;-77
2023/01/28 10:54:39;;;;;;;16.83;11.63;;;2.20;1.00;;;;;;5096248;28;20162;-77
2023/01/28 10:57:12;;;;;;;17.03;11.37;;;2.20;1.00;;;;;;5096104;28;20202;-76
2023/01/28 10:59:40;;;;;;;15.23;11.20;;;2.20;1.00;;;;;;5078137;28;20201;-77
2023/01/28 11:02:31;;;;;;;17.30;12.53;;;2.20;1.00;;;;;;5096233;28;20691;-77
2023/01/28 11:05:15;;;;;;;13.03;10.43;;;2.20;1.00;;;;;;5096821;28;20178;-77
2023/01/28 11:07:41;;;;;;;15.27;10.73;;;2.20;1.00;;;;;;5096128;28;20196;-77
2023/01/28 11:10:31;;;;;;;14.17;11.03;;;2.30;99.90;;;;;;5077593;28;20285;-77
2023/01/28 11:12:59;;;;;;;14.57;10.97;;;2.30;79.70;;;;;;5096340;28;20551;-77
2023/01/28 11:15:24;;;;;;;14.67;11.77;;;2.30;99.90;;;;;;5095898;28;20209;-77
2023/01/28 11:17:59;;;;;;;17.90;12.00;;;2.40;99.90;;;;;;5095790;28;20635;-77
2023/01/28 11:20:27;;;;;;;15.47;11.90;;;2.30;1.00;;;;;;5096067;28;20225;-77
2023/01/28 11:22:54;;;;;;;15.40;11.57;;;2.30;1.00;;;;;;5096075;28;20174;-78
2023/01/28 11:25:34;;;;;;;17.33;12.10;;;2.40;99.90;;;;;;5098008;28;20317;-77
2023/01/28 11:28:04;;;;;;;16.33;11.63;;;2.40;99.90;;;;;;5097591;28;20591;-78
2023/01/28 11:30:39;;;;;;;14.27;10.93;;;2.40;99.90;;;;;;5097368;28;20195;-77
2023/01/28 11:33:18;;;;;;;13.13;11.30;;;2.30;99.90;;;;;;5096921;28;20158;-77
2023/01/28 11:35:55;;;;;;;16.63;11.47;;;2.40;1.00;;;;;;5095412;28;20584;-77
2023/01/28 11:38:24;;;;;;;15.00;11.67;;;2.40;1.00;;;;;;5097132;28;20319;-77
2023/01/28 11:40:54;;;;;;;14.80;11.30;;;2.40;1.00;;;;;;5096688;28;20236;-78
2023/01/28 11:43:23;;;;;;;13.97;10.63;;;2.40;99.90;;;;;;5096597;28;20163;-78
2023/01/28 11:45:55;;;;;;;15.47;11.53;;;2.40;1.00;;;;;;5096918;28;20162;-78
2023/01/28 11:48:36;;;;;;;15.43;11.80;;;2.40;1.00;;;;;;5101810;28;20182;-77
2023/01/28 11:51:11;;;;;;;15.53;12.23;;;2.50;1.00;;;;;;5104986;28;20208;-77
2023/01/28 11:54:09;;;;;;;15.97;12.13;;;2.50;1.00;;;;;;5099066;28;20668;-78
2023/01/28 11:57:13;;;;;;;15.57;11.70;;;2.50;99.90;;;;;;5096659;28;20150;-78
2023/01/28 11:59:57;;;;;;;15.80;12.73;;;2.50;99.90;;;;;;5095916;28;20182;-78
2023/01/28 12:02:48;;;;;;;16.27;12.23;;;2.60;1.00;;;;;;5095942;28;20162;-78
2023/01/28 12:05:52;;;;;;;18.40;11.93;;;2.60;99.90;;;;;;5096575;28;20626;-78
2023/01/28 12:08:23;;;;;;;17.67;11.87;;;2.50;99.90;;;;;;5095042;28;20670;-77
2023/01/28 12:10:52;;;;;;;15.23;12.10;;;2.50;99.90;;;;;;5094149;28;20194;-78
2023/01/28 12:13:31;;;;;;;18.90;12.47;;;2.50;1.00;;;;;;5096066;28;20548;-78
2023/01/28 12:16:01;;;;;;;15.57;11.97;;;2.50;99.90;;;;;;5095873;28;20646;-78
2023/01/28 12:19:00;;;;;;;15.53;12.20;;;2.50;99.90;;;;;;5095605;28;20193;-77
2023/01/28 12:21:43;;;;;;;16.20;11.77;;;2.50;99.90;;;;;;5099359;28;20158;-78
2023/01/28 12:24:28;;;;;;;15.37;12.07;;;2.50;1.00;;;;;;5098953;28;20222;-79
2023/01/28 12:27:18;;;;;;;15.20;11.70;;;2.40;99.90;;;;;;5101200;28;20218;-78
2023/01/28 12:29:57;;;;;;;17.40;11.53;;;2.40;99.90;;;;;;5102915;28;20261;-78
2023/01/28 12:32:39;;;;;;;15.40;11.57;;;2.50;1.00;;;;;;5097015;28;20151;-78
2023/01/28 12:35:31;;;;;;;15.07;11.70;;;2.60;84.40;;;;;;5098838;28;20504;-78
2023/01/28 12:38:26;;;;;;;16.03;11.83;;;2.60;99.90;;;;;;5099383;28;20197;-78
2023/01/28 12:41:10;;;;;;;17.40;11.83;;;2.70;1.00;;;;;;5096408;28;20572;-78
2023/01/28 12:43:39;;;;;;;15.60;12.00;;;2.70;1.00;;;;;;5097814;28;20151;-78
2023/01/28 12:46:30;;;;;;;15.77;12.47;;;2.80;1.00;;;;;;5096905;28;20177;-79
2023/01/28 12:49:13;;;;;;;17.43;12.67;;;2.80;71.90;;;;;;5093163;28;20186;-78
2023/01/28 12:52:14;;;;;;;17.43;13.30;;;2.70;1.00;;;;;;5094952;28;20166;-78
2023/01/28 12:54:48;;;;;;;19.33;12.73;;;2.70;1.00;;;;;;5098003;28;20241;-78
2023/01/28 12:57:21;;;;;;;15.43;12.37;;;2.70;1.00;;;;;;5096709;28;20268;-77
2023/01/28 13:00:28;;;;;;;19.60;13.30;;;2.70;99.90;;;;;;5097224;28;20195;-78
2023/01/28 13:03:31;;;;;;;14.40;11.73;;;2.70;58.80;;;;;;5079595;28;20631;-78
2023/01/28 13:06:21;;;;;;;16.20;12.43;;;2.60;1.00;;;;;;5098137;28;20546;-78
2023/01/28 13:08:48;;;;;;;16.07;12.33;;;2.60;1.00;;;;;;5067364;28;20603;-79
2023/01/28 13:11:16;;;;;;;15.80;12.03;;;2.60;1.00;;;;;;5097356;28;20255;-79
2023/01/28 13:13:44;;;;;;;15.30;12.40;;;2.50;5.00;;;;;;5080321;28;20542;-79
2023/01/28 13:16:11;;;;;;;16.17;12.27;;;2.60;82.20;;;;;;5098447;28;20162;-78
2023/01/28 13:18:40;;;;;;;19.53;13.60;;;2.60;99.90;;;;;;5097178;28;20194;-78
2023/01/28 13:21:26;;;;;;;14.10;11.53;;;2.60;99.90;;;;;;5096091;28;20691;-78
2023/01/28 13:24:00;;;;;;;15.63;12.47;;;2.50;1.00;;;;;;5087123;28;20731;-78
2023/01/28 13:26:42;;;;;;;15.40;11.80;;;2.50;99.90;;;;;;5097801;28;20521;-78
2023/01/28 13:29:32;;;;;;;16.27;12.53;;;2.50;1.00;;;;;;5095687;28;20194;-78
2023/01/28 13:32:00;;;;;;;15.40;11.33;;;2.50;86.10;;;;;;5097514;28;20155;-78
2023/01/28 13:34:42;;;;;;;15.87;12.20;;;2.40;1.00;;;;;;5079462;28;20167;-78
2023/01/28 13:37:43;;;;;;;16.13;11.80;;;2.40;99.90;;;;;;5098039;28;20186;-77
2023/01/28 13:40:24;;;;;;;14.87;11.90;;;2.40;99.90;;;;;;5104756;28;20190;-77
2023/01/28 13:43:01;;;;;;;15.57;12.50;;;2.40;1.00;;;;;;5107323;28;20187;-78